createdAt,value
2022-07-27T00:01:14.330Z,128.52
2022-07-27T00:03:42.325Z,128.48
2022-07-27T00:06:09.575Z,110.72
2022-07-27T00:08:37.199Z,120.00
2022-07-27T00:11:05.402Z,108.88
2022-07-27T00:13:32.975Z,124.97
2022-07-27T00:16:00.888Z,120.88
2022-07-27T00:18:28.778Z,121.18
2022-07-27T00:20:56.442Z,120.32
2022-07-27T00:23:23.825Z,114.28
2022-07-27T00:25:51.843Z,107.55
2022-07-27T00:28:20.761Z,103.00
2022-07-27T00:30:48.352Z,117.40
2022-07-27T00:33:17.437Z,109.75
2022-07-27T00:35:45.944Z,117.55
2022-07-27T00:38:14.413Z,108.07
2022-07-27T00:40:41.707Z,103.97
2022-07-27T00:43:08.912Z,100.68
2022-07-27T00:45:36.132Z,120.10
2022-07-27T00:48:03.364Z,102.18
2022-07-27T00:50:30.608Z,105.18
2022-07-27T00:52:58.091Z,98.68
2022-07-27T00:55:25.740Z,115.00
2022-07-27T00:57:59.505Z,120.68
2022-07-27T01:00:30.686Z,118.15
2022-07-27T01:02:58.838Z,105.90
2022-07-27T01:05:36.399Z,104.20
2022-07-27T01:08:08.549Z,114.70
2022-07-27T01:10:46.016Z,115.40
2022-07-27T01:13:17.473Z,98.57
2022-07-27T01:15:45.581Z,93.87
2022-07-27T01:18:29.371Z,92.10
2022-07-27T01:20:57.862Z,109.45
2022-07-27T01:23:26.369Z,104.78
2022-07-27T01:25:54.459Z,104.65
2022-07-27T01:28:21.808Z,121.47
2022-07-27T01:30:49.711Z,108.50
2022-07-27T01:33:17.209Z,103.38
2022-07-27T01:35:45.189Z,111.25
2022-07-27T01:38:13.295Z,108.18
2022-07-27T01:40:41.403Z,110.10
2022-07-27T01:43:09.292Z,117.03
2022-07-27T01:45:36.844Z,116.38
2022-07-27T01:48:05.395Z,112.25
2022-07-27T01:50:33.009Z,111.03
2022-07-27T01:53:00.581Z,108.80
2022-07-27T01:55:31.068Z,94.22
2022-07-27T01:58:07.596Z,88.63
2022-07-27T02:00:35.811Z,105.82
2022-07-27T02:03:04.775Z,112.60
2022-07-27T02:05:32.447Z,100.28
2022-07-27T02:07:59.815Z,101.07
2022-07-27T02:10:27.174Z,115.05
2022-07-27T02:12:54.689Z,110.70
2022-07-27T02:15:25.518Z,111.82
2022-07-27T02:17:54.514Z,107.93
2022-07-27T02:20:25.834Z,98.55
2022-07-27T02:22:53.177Z,92.97
2022-07-27T02:25:20.998Z,88.30
2022-07-27T02:27:50.019Z,92.20
2022-07-27T02:30:19.898Z,78.47
2022-07-27T02:32:47.362Z,76.13
2022-07-27T02:35:19.145Z,84.72
2022-07-27T02:37:48.725Z,77.85
2022-07-27T02:40:17.597Z,98.00
2022-07-27T02:42:45.803Z,79.63
2022-07-27T02:45:14.921Z,102.38
2022-07-27T02:47:42.928Z,90.55
2022-07-27T02:50:10.830Z,86.00
2022-07-27T02:52:38.741Z,89.78
2022-07-27T02:55:07.067Z,96.82
2022-07-27T02:57:36.113Z,98.55
2022-07-27T03:00:06.284Z,81.00
2022-07-27T03:02:33.974Z,84.93
2022-07-27T03:05:01.429Z,82.55
2022-07-27T03:07:29.802Z,93.70
2022-07-27T03:09:59.217Z,88.28
2022-07-27T03:12:26.437Z,94.97
2022-07-27T03:14:53.851Z,87.18
2022-07-27T03:17:21.145Z,81.60
2022-07-27T03:19:50.031Z,92.72
2022-07-27T03:22:17.541Z,86.00
2022-07-27T03:24:45.032Z,99.90
2022-07-27T03:27:13.583Z,91.43
2022-07-27T03:29:44.886Z,89.30
2022-07-27T03:32:12.349Z,88.68
2022-07-27T03:34:39.725Z,86.05
2022-07-27T03:37:07.135Z,94.53
2022-07-27T03:39:34.627Z,89.90
2022-07-27T03:42:02.216Z,77.80
2022-07-27T03:44:29.484Z,82.40
2022-07-27T03:46:56.816Z,82.22
2022-07-27T03:49:24.436Z,85.43
2022-07-27T03:51:52.060Z,89.57
2022-07-27T03:54:19.269Z,81.05
2022-07-27T03:56:46.564Z,86.75
2022-07-27T03:59:14.727Z,88.85
2022-07-27T04:01:42.527Z,96.13
2022-07-27T04:04:09.766Z,95.53
2022-07-27T04:06:36.838Z,84.10
2022-07-27T04:09:08.655Z,86.03
2022-07-27T04:11:37.790Z,98.57
2022-07-27T04:14:12.930Z,90.88
2022-07-27T04:16:40.521Z,82.75
2022-07-27T04:19:07.818Z,84.07
2022-07-27T04:21:35.468Z,87.70
2022-07-27T04:24:03.128Z,78.35
2022-07-27T04:26:30.251Z,75.13
2022-07-27T04:28:58.655Z,84.22
2022-07-27T04:31:25.851Z,90.20
2022-07-27T04:33:52.982Z,87.88
2022-07-27T04:36:20.067Z,72.80
2022-07-27T04:38:47.483Z,88.68
2022-07-27T04:41:15.262Z,89.82
2022-07-27T04:43:42.410Z,78.88
2022-07-27T04:46:14.962Z,82.22
2022-07-27T04:48:49.393Z,79.35
2022-07-27T04:51:18.332Z,90.72
2022-07-27T04:53:52.367Z,86.30
2022-07-27T04:56:25.466Z,83.80
2022-07-27T04:58:52.669Z,86.38
2022-07-27T05:01:19.909Z,80.00
2022-07-27T05:03:47.212Z,93.68
2022-07-27T05:06:14.445Z,83.18
2022-07-27T05:08:42.642Z,85.85
2022-07-27T05:11:09.938Z,99.97
2022-07-27T05:13:40.583Z,86.43
2022-07-27T05:16:11.732Z,97.82
2022-07-27T05:18:39.765Z,89.03
2022-07-27T05:21:08.399Z,95.38
2022-07-27T05:23:36.071Z,106.93
2022-07-27T05:26:03.365Z,88.63
2022-07-27T05:28:30.607Z,93.28
2022-07-27T05:30:57.827Z,99.55
2022-07-27T05:33:25.529Z,94.82
2022-07-27T05:35:52.792Z,97.32
2022-07-27T05:38:19.934Z,109.47
2022-07-27T05:40:47.527Z,111.00
2022-07-27T05:43:15.240Z,102.07
2022-07-27T05:45:42.443Z,101.05
2022-07-27T05:48:09.591Z,98.32
2022-07-27T05:50:37.196Z,94.45
2022-07-27T05:53:04.431Z,110.63
2022-07-27T05:55:31.534Z,102.93
2022-07-27T05:57:58.595Z,86.05
2022-07-27T06:00:25.770Z,98.75
2022-07-27T06:02:52.905Z,101.75
2022-07-27T06:05:20.120Z,106.88
2022-07-27T06:07:59.107Z,110.88
2022-07-27T06:10:32.479Z,103.85
2022-07-27T06:13:01.154Z,97.05
2022-07-27T06:15:28.274Z,78.80
2022-07-27T06:17:55.543Z,102.85
2022-07-27T06:20:24.015Z,96.80
2022-07-27T06:22:57.363Z,100.93
2022-07-27T06:25:34.428Z,90.20
2022-07-27T06:28:06.772Z,106.28
2022-07-27T06:30:33.972Z,92.90
2022-07-27T06:33:06.010Z,87.95
2022-07-27T06:35:34.131Z,110.85
2022-07-27T06:38:02.364Z,110.47
2022-07-27T06:40:30.105Z,98.68
2022-07-27T06:42:58.400Z,92.78
2022-07-27T06:45:27.211Z,101.75
2022-07-27T06:47:54.825Z,97.60
2022-07-27T06:50:22.470Z,95.80
2022-07-27T06:52:49.757Z,123.75
2022-07-27T06:55:16.933Z,98.95
2022-07-27T06:57:44.083Z,95.05
2022-07-27T07:00:11.965Z,105.82
2022-07-27T07:02:50.510Z,104.43
2022-07-27T07:05:17.644Z,101.40
2022-07-27T07:07:44.885Z,108.85
2022-07-27T07:10:12.010Z,102.32
2022-07-27T07:12:39.068Z,115.65
2022-07-27T07:15:06.978Z,113.25
2022-07-27T07:17:34.540Z,91.28
2022-07-27T07:20:01.957Z,96.57
2022-07-27T07:22:29.187Z,95.22
2022-07-27T07:25:02.245Z,96.13
2022-07-27T07:27:29.804Z,117.80
2022-07-27T07:29:56.998Z,91.50
2022-07-27T07:32:27.729Z,95.43
2022-07-27T07:34:58.667Z,68.57
2022-07-27T07:37:33.544Z,91.78
2022-07-27T07:40:18.916Z,102.22
2022-07-27T07:42:51.415Z,86.50
2022-07-27T07:45:19.631Z,78.15
2022-07-27T07:47:46.884Z,88.95
2022-07-27T07:50:14.208Z,79.80
2022-07-27T07:52:41.401Z,58.05
2022-07-27T07:55:09.253Z,39.50
2022-07-27T07:57:36.449Z,38.90
2022-07-27T08:00:06.560Z,46.58
2022-07-27T08:02:45.546Z,43.08
2022-07-27T08:05:14.150Z,51.05
2022-07-27T08:07:42.289Z,35.15
2022-07-27T08:10:11.379Z,43.13
2022-07-27T08:12:40.478Z,30.02
2022-07-27T08:15:08.751Z,33.03
2022-07-27T08:17:36.015Z,51.22
2022-07-27T08:20:06.783Z,45.55
2022-07-27T08:22:34.219Z,22.55
2022-07-27T08:25:02.311Z,20.88
2022-07-27T08:27:29.883Z,18.85
2022-07-27T08:30:09.573Z,14.55
2022-07-27T08:32:58.538Z,19.95
2022-07-27T08:35:26.703Z,20.80
2022-07-27T08:37:54.554Z,25.05
2022-07-27T08:43:10.125Z,18.73
2022-07-27T08:45:37.811Z,9.82
2022-07-27T08:48:06.020Z,14.68
2022-07-27T08:50:35.475Z,9.02
2022-07-27T08:53:03.912Z,11.65
2022-07-27T08:55:39.886Z,7.15
2022-07-27T08:58:07.876Z,8.02
2022-07-27T09:00:38.027Z,6.63
2022-07-27T09:03:05.184Z,6.32
2022-07-27T09:05:37.165Z,6.15
2022-07-27T09:08:24.694Z,7.25
2022-07-27T09:10:56.772Z,6.68
2022-07-27T09:13:32.305Z,7.53
2022-07-27T09:16:23.503Z,7.57
2022-07-27T09:18:59.791Z,8.95
2022-07-27T09:21:27.154Z,11.80
2022-07-27T09:24:13.424Z,18.17
2022-07-27T09:27:02.744Z,17.33
2022-07-27T09:29:35.316Z,17.85
2022-07-27T09:32:17.487Z,14.07
2022-07-27T09:34:45.667Z,20.67
2022-07-27T09:37:24.050Z,17.15
2022-07-27T09:39:51.214Z,26.77
2022-07-27T09:42:59.232Z,24.77
2022-07-27T09:45:34.545Z,20.88
2022-07-27T09:48:09.136Z,17.80
2022-07-27T09:50:38.174Z,13.85
2022-07-27T09:53:41.461Z,16.48
2022-07-27T09:56:10.982Z,15.60
2022-07-27T09:58:46.420Z,15.05
2022-07-27T10:01:24.339Z,18.55
2022-07-27T10:03:54.734Z,17.13
2022-07-27T10:06:22.802Z,16.88
2022-07-27T10:08:53.903Z,13.13
2022-07-27T10:11:22.421Z,13.95
2022-07-27T10:13:51.381Z,16.23
2022-07-27T10:16:25.125Z,17.38
2022-07-27T10:19:15.655Z,16.27
2022-07-27T10:21:45.756Z,14.80
2022-07-27T10:24:27.037Z,24.50
2022-07-27T10:26:54.658Z,24.13
2022-07-27T10:29:23.436Z,34.58
2022-07-27T10:32:01.159Z,31.33
2022-07-27T10:34:40.177Z,23.23
2022-07-27T10:37:16.584Z,24.40
2022-07-27T10:39:51.801Z,21.58
2022-07-27T10:42:31.200Z,29.13
2022-07-27T10:44:59.943Z,29.05
2022-07-27T10:47:39.896Z,26.67
2022-07-27T10:50:16.005Z,23.65
2022-07-27T10:53:11.006Z,26.65
2022-07-27T10:55:38.777Z,27.05
2022-07-27T10:58:15.033Z,18.77
2022-07-27T11:00:54.626Z,20.30
2022-07-27T11:03:25.233Z,27.13
2022-07-27T11:06:32.563Z,23.67
2022-07-27T11:11:51.388Z,23.27
2022-07-27T11:14:19.218Z,29.67
2022-07-27T11:17:32.169Z,25.10
2022-07-27T11:19:57.445Z,20.15
2022-07-27T11:25:19.745Z,14.95
2022-07-27T11:27:50.870Z,17.20
2022-07-27T11:30:25.997Z,19.42
2022-07-27T11:32:53.739Z,19.02
2022-07-27T11:35:21.192Z,18.80
2022-07-27T11:38:03.878Z,17.95
2022-07-27T11:40:56.957Z,18.30
2022-07-27T11:43:42.067Z,13.13
2022-07-27T11:46:33.948Z,14.73
2022-07-27T11:49:17.569Z,15.73
2022-07-27T11:51:47.690Z,18.30
2022-07-27T11:54:27.871Z,25.17
2022-07-27T11:56:59.079Z,49.45
2022-07-27T11:59:37.556Z,84.95
2022-07-27T12:02:16.184Z,135.15
2022-07-27T12:04:45.696Z,170.02
2022-07-27T12:07:23.809Z,175.63
2022-07-27T12:09:54.642Z,146.45
2022-07-27T12:12:28.659Z,124.90
2022-07-27T12:14:57.576Z,118.18
2022-07-27T12:17:31.763Z,201.55
2022-07-27T12:20:07.610Z,108.28
2022-07-27T12:22:37.901Z,127.22
2022-07-27T12:25:29.674Z,116.07
2022-07-27T12:28:07.017Z,118.93
2022-07-27T12:30:49.040Z,162.40
2022-07-27T12:33:25.553Z,146.55
2022-07-27T12:35:52.699Z,158.52
2022-07-27T12:38:20.078Z,145.95
2022-07-27T12:41:00.181Z,132.43
2022-07-27T12:43:28.088Z,104.95
2022-07-27T12:45:55.801Z,88.60
2022-07-27T12:48:28.792Z,72.25
2022-07-27T12:51:02.475Z,69.32
2022-07-27T12:53:31.352Z,57.10
2022-07-27T12:56:00.756Z,54.33
2022-07-27T12:58:28.121Z,59.10
2022-07-27T13:00:55.518Z,60.03
2022-07-27T13:03:23.545Z,58.65
2022-07-27T13:05:50.684Z,51.92
2022-07-27T13:08:17.835Z,56.88
2022-07-27T13:10:45.212Z,49.67
2022-07-27T13:13:12.597Z,50.17
2022-07-27T13:15:39.921Z,43.70
2022-07-27T13:18:08.594Z,34.45
2022-07-27T13:20:36.775Z,43.08
2022-07-27T13:23:08.520Z,42.20
2022-07-27T13:25:41.065Z,45.35
2022-07-27T13:28:10.428Z,41.03
2022-07-27T13:30:37.532Z,43.75
2022-07-27T13:33:04.651Z,41.38
2022-07-27T13:35:31.682Z,40.20
2022-07-27T13:37:59.008Z,38.50
2022-07-27T13:40:26.110Z,38.50
2022-07-27T13:42:53.179Z,34.92
2022-07-27T13:45:20.279Z,33.10
2022-07-27T13:47:47.294Z,35.58
2022-07-27T13:50:19.325Z,37.33
2022-07-27T13:52:50.347Z,32.35
2022-07-27T13:55:18.188Z,28.80
2022-07-27T13:57:46.822Z,23.08
2022-07-27T14:00:16.114Z,26.80
2022-07-27T14:02:43.921Z,27.85
2022-07-27T14:05:14.316Z,29.77
2022-07-27T14:07:43.188Z,23.05
2022-07-27T14:10:30.788Z,19.95
2022-07-27T14:13:08.262Z,23.48
2022-07-27T14:15:50.318Z,23.60
2022-07-27T14:18:26.597Z,36.85
2022-07-27T14:20:58.618Z,31.92
2022-07-27T14:23:27.072Z,44.28
2022-07-27T14:25:55.503Z,39.88
2022-07-27T14:28:23.691Z,45.45
2022-07-27T14:30:51.865Z,54.67
2022-07-27T14:33:18.975Z,55.15
2022-07-27T14:35:47.203Z,62.92
2022-07-27T14:38:24.824Z,65.28
2022-07-27T14:40:58.036Z,76.72
2022-07-27T14:43:25.042Z,97.00
2022-07-27T14:45:52.201Z,93.88
2022-07-27T14:48:28.488Z,105.47
2022-07-27T14:51:01.095Z,95.43
2022-07-27T14:53:28.288Z,99.65
2022-07-27T14:55:55.402Z,101.35
2022-07-27T14:58:23.049Z,109.50
2022-07-27T15:00:50.261Z,105.38
2022-07-27T15:03:17.740Z,109.32
2022-07-27T15:05:49.223Z,103.75
2022-07-27T15:08:20.142Z,103.43
2022-07-27T15:10:48.597Z,101.47
2022-07-27T15:13:16.683Z,105.25
2022-07-27T15:15:44.552Z,99.90
2022-07-27T15:18:11.653Z,76.35
2022-07-27T15:20:38.725Z,85.95
2022-07-27T15:23:06.654Z,74.07
2022-07-27T15:25:34.506Z,74.70
2022-07-27T15:28:01.509Z,52.92
2022-07-27T15:30:28.731Z,58.65
2022-07-27T15:32:55.710Z,45.17
2022-07-27T15:35:22.887Z,46.72
2022-07-27T15:37:53.933Z,50.83
2022-07-27T15:40:37.997Z,57.45
2022-07-27T15:43:07.087Z,52.83
2022-07-27T15:45:38.685Z,47.58
2022-07-27T15:48:08.591Z,55.33
2022-07-27T15:50:37.477Z,31.08
2022-07-27T15:53:06.123Z,66.18
2022-07-27T15:55:34.014Z,45.33
2022-07-27T15:58:02.113Z,48.42
2022-07-27T16:00:29.667Z,49.75
2022-07-27T16:02:57.085Z,56.35
2022-07-27T16:05:24.486Z,56.05
2022-07-27T16:07:51.505Z,42.28
2022-07-27T16:10:18.560Z,52.95
2022-07-27T16:12:45.849Z,47.63
2022-07-27T16:15:13.126Z,54.03
2022-07-27T16:17:40.634Z,57.92
2022-07-27T16:20:08.347Z,62.63
2022-07-27T16:22:37.971Z,78.13
2022-07-27T16:25:05.727Z,72.63
2022-07-27T16:27:32.866Z,75.65
2022-07-27T16:30:00.073Z,50.65
2022-07-27T16:32:27.330Z,55.20
2022-07-27T16:34:54.415Z,45.33
2022-07-27T16:37:22.709Z,49.95
2022-07-27T16:39:49.839Z,51.25
2022-07-27T16:42:20.140Z,54.58
2022-07-27T16:44:47.444Z,37.50
2022-07-27T16:47:14.654Z,36.45
2022-07-27T16:49:42.000Z,37.63
2022-07-27T16:52:09.594Z,33.78
2022-07-27T16:54:39.597Z,36.83
2022-07-27T16:57:08.319Z,34.15
2022-07-27T16:59:39.078Z,35.90
2022-07-27T17:02:06.392Z,67.53
2022-07-27T17:04:34.153Z,79.40
2022-07-27T17:07:01.175Z,101.28
2022-07-27T17:09:28.252Z,81.07
2022-07-27T17:11:55.242Z,88.22
2022-07-27T17:14:22.663Z,57.47
2022-07-27T17:16:52.275Z,47.05
2022-07-27T17:19:20.212Z,80.55
2022-07-27T17:21:48.165Z,64.63
2022-07-27T17:24:15.466Z,63.80
2022-07-27T17:26:42.481Z,56.85
2022-07-27T17:29:09.845Z,65.50
2022-07-27T17:31:37.326Z,51.25
2022-07-27T17:34:04.715Z,56.25
2022-07-27T17:36:31.956Z,44.30
2022-07-27T17:39:01.766Z,52.35
2022-07-27T17:41:28.860Z,54.03
2022-07-27T17:43:56.722Z,39.88
2022-07-27T17:46:24.615Z,46.75
2022-07-27T17:48:54.373Z,46.28
2022-07-27T17:51:23.275Z,43.63
2022-07-27T17:53:50.582Z,60.92
2022-07-27T17:56:17.682Z,58.17
2022-07-27T17:58:45.682Z,44.40
2022-07-27T18:01:12.861Z,48.35
2022-07-27T18:03:41.194Z,57.40
2022-07-27T18:06:08.283Z,46.35
2022-07-27T18:08:36.439Z,50.33
2022-07-27T18:11:03.741Z,48.55
2022-07-27T18:13:39.168Z,46.33
2022-07-27T18:16:12.135Z,41.47
2022-07-27T18:18:40.711Z,43.88
2022-07-27T18:21:08.994Z,30.17
2022-07-27T18:23:36.563Z,41.00
2022-07-27T18:26:04.398Z,66.60
2022-07-27T18:28:39.150Z,55.65
2022-07-27T18:31:07.158Z,59.45
2022-07-27T18:33:36.536Z,50.80
2022-07-27T18:36:05.273Z,90.50
2022-07-27T18:38:32.614Z,94.25
2022-07-27T18:41:00.121Z,114.85
2022-07-27T18:43:27.209Z,99.10
2022-07-27T18:45:54.264Z,109.15
2022-07-27T18:48:21.553Z,99.45
2022-07-27T18:50:48.790Z,68.35
2022-07-27T18:53:15.898Z,64.07
2022-07-27T18:55:42.985Z,100.75
2022-07-27T18:58:10.195Z,100.95
2022-07-27T19:00:37.494Z,81.68
2022-07-27T19:03:04.752Z,101.28
2022-07-27T19:05:41.429Z,94.90
2022-07-27T19:08:13.096Z,88.88
2022-07-27T19:10:43.490Z,55.72
2022-07-27T19:13:11.519Z,92.80
2022-07-27T19:15:39.059Z,86.28
2022-07-27T19:18:07.103Z,68.60
2022-07-27T19:20:36.121Z,87.13
2022-07-27T19:23:03.804Z,63.65
2022-07-27T19:25:30.957Z,63.78
2022-07-27T19:27:58.054Z,63.80
2022-07-27T19:30:25.602Z,55.80
2022-07-27T19:32:52.617Z,75.15
2022-07-27T19:35:20.074Z,75.07
2022-07-27T19:37:47.196Z,56.17
2022-07-27T19:40:42.991Z,57.45
2022-07-27T19:43:04.186Z,62.55
2022-07-27T19:45:31.646Z,54.47
2022-07-27T19:48:01.206Z,55.53
2022-07-27T19:50:28.193Z,67.63
2022-07-27T19:52:55.433Z,49.50
2022-07-27T19:55:22.601Z,56.33
2022-07-27T19:57:49.788Z,58.20
2022-07-27T20:00:16.951Z,59.05
2022-07-27T20:02:44.553Z,60.13
2022-07-27T20:05:11.768Z,69.65
2022-07-27T20:07:38.976Z,59.75
2022-07-27T20:10:06.891Z,50.40
2022-07-27T20:12:33.873Z,63.17
2022-07-27T20:15:02.239Z,70.20
2022-07-27T20:17:30.536Z,70.30
2022-07-27T20:19:57.566Z,64.63
2022-07-27T20:22:24.585Z,66.72
2022-07-27T20:24:51.631Z,66.10
2022-07-27T20:27:18.786Z,58.92
2022-07-27T20:29:45.898Z,83.25
2022-07-27T20:32:13.005Z,74.05
2022-07-27T20:34:39.973Z,72.30
2022-07-27T20:37:07.037Z,67.50
2022-07-27T20:39:34.151Z,78.93
2022-07-27T20:42:01.320Z,58.15
2022-07-27T20:44:28.401Z,87.47
2022-07-27T20:46:55.352Z,70.18
2022-07-27T20:49:23.017Z,80.53
2022-07-27T20:51:50.077Z,61.65
2022-07-27T20:54:17.156Z,69.97
2022-07-27T20:56:56.495Z,69.28
2022-07-27T20:59:24.010Z,74.85
2022-07-27T21:01:51.537Z,50.45
2022-07-27T21:04:22.090Z,72.80
2022-07-27T21:09:18.723Z,49.08
2022-07-27T21:11:45.958Z,72.97
2022-07-27T21:14:13.142Z,58.45
2022-07-27T21:16:40.813Z,69.25
2022-07-27T21:19:08.066Z,77.93
2022-07-27T21:21:35.466Z,66.78
2022-07-27T21:24:28.496Z,71.35
2022-07-27T21:27:00.939Z,55.50
2022-07-27T21:29:33.731Z,87.22
2022-07-27T21:32:01.229Z,65.72
2022-07-27T21:34:28.777Z,68.40
2022-07-27T21:36:55.959Z,80.15
2022-07-27T21:39:25.037Z,63.13
2022-07-27T21:41:52.139Z,77.50
2022-07-27T21:44:19.187Z,65.93
2022-07-27T21:46:46.339Z,83.03
2022-07-27T21:49:13.765Z,79.35
2022-07-27T21:51:40.842Z,86.57
2022-07-27T21:54:08.072Z,85.10
2022-07-27T21:56:41.854Z,73.40
2022-07-27T21:59:10.456Z,77.13
2022-07-27T22:01:37.692Z,72.95
2022-07-27T22:04:06.312Z,70.25
2022-07-27T22:06:33.479Z,72.90
2022-07-27T22:09:01.331Z,82.95
2022-07-27T22:11:28.406Z,57.22
2022-07-27T22:13:56.636Z,74.30
2022-07-27T22:16:23.844Z,73.38
2022-07-27T22:18:51.110Z,66.63
2022-07-27T22:21:18.215Z,78.53
2022-07-27T22:26:16.097Z,55.30
2022-07-27T22:28:44.255Z,63.58
2022-07-27T22:31:22.020Z,87.25
2022-07-27T22:33:51.027Z,77.68
2022-07-27T22:36:18.283Z,66.75
2022-07-27T22:38:45.440Z,79.13
2022-07-27T22:41:12.526Z,78.03
2022-07-27T22:43:39.722Z,80.22
2022-07-27T22:46:07.258Z,83.38
2022-07-27T22:48:34.495Z,83.90
2022-07-27T22:51:01.793Z,88.40
2022-07-27T22:53:28.843Z,92.00
2022-07-27T22:55:56.313Z,71.57
2022-07-27T22:58:23.543Z,72.35
2022-07-27T23:00:53.496Z,74.88
2022-07-27T23:03:23.386Z,80.75
2022-07-27T23:05:50.758Z,81.93
2022-07-27T23:08:17.944Z,69.85
2022-07-27T23:10:47.754Z,84.22
2022-07-27T23:13:16.139Z,79.40
2022-07-27T23:15:44.557Z,72.90
2022-07-27T23:18:12.417Z,76.43
2022-07-27T23:20:40.671Z,72.65
2022-07-27T23:23:15.814Z,93.80
2022-07-27T23:25:48.991Z,82.90
2022-07-27T23:28:17.283Z,69.20
2022-07-27T23:30:44.511Z,76.82
2022-07-27T23:33:11.724Z,92.05
2022-07-27T23:35:38.975Z,82.85
2022-07-27T23:38:06.212Z,79.65
2022-07-27T23:40:33.346Z,80.57
2022-07-27T23:43:00.490Z,72.55
2022-07-27T23:45:27.597Z,77.63
2022-07-27T23:47:54.826Z,80.88
2022-07-27T23:50:22.470Z,79.85
2022-07-27T23:52:49.733Z,80.00
2022-07-27T23:55:18.042Z,86.38
2022-07-27T23:57:45.232Z,83.68
